sensor_id;sensor_type;location;lat;lon;timestamp;pressure;altitude;pressure_sealevel;temperature;humidity
79028;BME280;68427;48.476;19.102;2023-03-14T00:01:20;96716.75;;;3.42;69.09
79028;BME280;68427;48.476;19.102;2023-03-14T00:03:46;96724.22;;;3.37;69.70
79028;BME280;68427;48.476;19.102;2023-03-14T00:06:12;96712.97;;;3.22;70.70
79028;BME280;68427;48.476;19.102;2023-03-14T00:08:42;96719.28;;;3.19;70.91
79028;BME280;68427;48.476;19.102;2023-03-14T00:11:10;96709.72;;;3.20;70.22
79028;BME280;68427;48.476;19.102;2023-03-14T00:13:37;96718.00;;;3.15;70.85
79028;BME280;68427;48.476;19.102;2023-03-14T00:16:03;96715.44;;;3.07;72.29
79028;BME280;68427;48.476;19.102;2023-03-14T00:18:29;96709.97;;;3.02;70.43
79028;BME280;68427;48.476;19.102;2023-03-14T00:20:57;96688.97;;;2.97;70.89
79028;BME280;68427;48.476;19.102;2023-03-14T00:23:23;96683.34;;;2.85;72.92
79028;BME280;68427;48.476;19.102;2023-03-14T00:25:50;96680.41;;;2.88;70.94
79028;BME280;68427;48.476;19.102;2023-03-14T00:28:16;96670.25;;;2.87;71.12
79028;BME280;68427;48.476;19.102;2023-03-14T00:30:41;96665.72;;;2.80;70.85
79028;BME280;68427;48.476;19.102;2023-03-14T00:33:07;96655.06;;;2.75;71.43
79028;BME280;68427;48.476;19.102;2023-03-14T00:35:33;96657.53;;;2.69;71.81
79028;BME280;68427;48.476;19.102;2023-03-14T00:37:58;96643.34;;;2.56;71.87
79028;BME280;68427;48.476;19.102;2023-03-14T00:40:24;96628.31;;;2.60;72.06
79028;BME280;68427;48.476;19.102;2023-03-14T00:42:51;96631.06;;;2.50;72.47
79028;BME280;68427;48.476;19.102;2023-03-14T00:45:17;96624.78;;;2.45;72.41
79028;BME280;68427;48.476;19.102;2023-03-14T00:47:42;96613.81;;;2.43;72.42
79028;BME280;68427;48.476;19.102;2023-03-14T00:50:10;96602.69;;;2.34;72.70
79028;BME280;68427;48.476;19.102;2023-03-14T00:52:36;96597.22;;;2.29;73.47
79028;BME280;68427;48.476;19.102;2023-03-14T00:55:02;96600.63;;;2.13;74.21
79028;BME280;68427;48.476;19.102;2023-03-14T00:57:28;96588.41;;;1.99;74.76
79028;BME280;68427;48.476;19.102;2023-03-14T00:59:55;96576.78;;;1.94;73.66
79028;BME280;68427;48.476;19.102;2023-03-14T01:02:20;96585.31;;;1.95;73.45
79028;BME280;68427;48.476;19.102;2023-03-14T01:04:47;96581.44;;;1.99;73.23
79028;BME280;68427;48.476;19.102;2023-03-14T01:07:13;96564.53;;;1.88;74.61
79028;BME280;68427;48.476;19.102;2023-03-14T01:09:39;96557.59;;;1.81;74.75
79028;BME280;68427;48.476;19.102;2023-03-14T01:12:04;96553.72;;;1.77;75.53
79028;BME280;68427;48.476;19.102;2023-03-14T01:14:30;96549.84;;;1.64;75.96
79028;BME280;68427;48.476;19.102;2023-03-14T01:16:57;96561.13;;;1.55;76.41
79028;BME280;68427;48.476;19.102;2023-03-14T01:19:26;96542.13;;;1.56;76.37
79028;BME280;68427;48.476;19.102;2023-03-14T01:21:52;96540.31;;;1.73;76.15
79028;BME280;68427;48.476;19.102;2023-03-14T01:24:17;96532.41;;;1.75;76.16
79028;BME280;68427;48.476;19.102;2023-03-14T01:26:43;96533.38;;;1.82;74.72
79028;BME280;68427;48.476;19.102;2023-03-14T01:29:09;96539.38;;;1.66;75.13
79028;BME280;68427;48.476;19.102;2023-03-14T01:31:34;96523.41;;;1.62;75.04
79028;BME280;68427;48.476;19.102;2023-03-14T01:34:02;96526.31;;;1.51;76.57
79028;BME280;68427;48.476;19.102;2023-03-14T01:36:27;96527.91;;;1.52;75.19
79028;BME280;68427;48.476;19.102;2023-03-14T01:38:53;96513.41;;;1.59;77.26
79028;BME280;68427;48.476;19.102;2023-03-14T01:41:21;96521.78;;;1.37;77.32
79028;BME280;68427;48.476;19.102;2023-03-14T01:43:47;96508.75;;;1.38;76.07
79028;BME280;68427;48.476;19.102;2023-03-14T01:49:12;96501.16;;;1.28;75.71
79028;BME280;68427;48.476;19.102;2023-03-14T01:51:44;96485.50;;;1.30;76.06
79028;BME280;68427;48.476;19.102;2023-03-14T01:54:16;96467.00;;;1.26;76.71
79028;BME280;68427;48.476;19.102;2023-03-14T01:56:48;96466.84;;;1.28;77.15
79028;BME280;68427;48.476;19.102;2023-03-14T01:59:15;96455.06;;;1.17;77.76
79028;BME280;68427;48.476;19.102;2023-03-14T02:01:43;96457.16;;;1.22;76.78
79028;BME280;68427;48.476;19.102;2023-03-14T02:04:13;96467.63;;;1.28;77.21
79028;BME280;68427;48.476;19.102;2023-03-14T02:06:59;96461.97;;;1.25;76.73
79028;BME280;68427;48.476;19.102;2023-03-14T02:09:26;96459.72;;;1.22;76.71
79028;BME280;68427;48.476;19.102;2023-03-14T02:11:52;96449.72;;;1.27;75.75
79028;BME280;68427;48.476;19.102;2023-03-14T02:14:26;96435.06;;;1.27;76.18
79028;BME280;68427;48.476;19.102;2023-03-14T02:16:54;96423.28;;;1.25;76.40
79028;BME280;68427;48.476;19.102;2023-03-14T02:19:33;96435.06;;;1.19;76.78
79028;BME280;68427;48.476;19.102;2023-03-14T02:22:06;96439.25;;;1.12;77.58
79028;BME280;68427;48.476;19.102;2023-03-14T02:24:38;96435.72;;;1.05;77.75
79028;BME280;68427;48.476;19.102;2023-03-14T02:27:16;96433.63;;;1.08;77.11
79028;BME280;68427;48.476;19.102;2023-03-14T02:29:48;96423.13;;;1.10;78.89
79028;BME280;68427;48.476;19.102;2023-03-14T02:32:16;96422.19;;;1.11;76.79
79028;BME280;68427;48.476;19.102;2023-03-14T02:34:45;96437.47;;;1.13;78.62
79028;BME280;68427;48.476;19.102;2023-03-14T02:37:13;96435.72;;;1.13;77.64
79028;BME280;68427;48.476;19.102;2023-03-14T02:39:43;96434.28;;;1.11;78.11
79028;BME280;68427;48.476;19.102;2023-03-14T02:42:10;96451.34;;;1.12;78.03
79028;BME280;68427;48.476;19.102;2023-03-14T02:44:48;96462.00;;;1.08;77.12
79028;BME280;68427;48.476;19.102;2023-03-14T02:47:14;96449.75;;;1.11;79.01
79028;BME280;68427;48.476;19.102;2023-03-14T02:49:39;96454.91;;;1.11;77.52
79028;BME280;68427;48.476;19.102;2023-03-14T02:52:05;96444.09;;;1.23;78.74
79028;BME280;68427;48.476;19.102;2023-03-14T02:54:31;96456.50;;;1.36;79.58
79028;BME280;68427;48.476;19.102;2023-03-14T02:56:57;96435.25;;;1.26;79.37
79028;BME280;68427;48.476;19.102;2023-03-14T02:59:22;96432.66;;;1.26;79.40
79028;BME280;68427;48.476;19.102;2023-03-14T03:01:50;96429.91;;;1.27;78.93
79028;BME280;68427;48.476;19.102;2023-03-14T03:04:15;96433.28;;;1.20;79.22
79028;BME280;68427;48.476;19.102;2023-03-14T03:06:41;96433.94;;;1.14;79.43
79028;BME280;68427;48.476;19.102;2023-03-14T03:09:07;96428.16;;;1.12;78.24
79028;BME280;68427;48.476;19.102;2023-03-14T03:11:33;96426.69;;;1.09;78.34
79028;BME280;68427;48.476;19.102;2023-03-14T03:13:59;96418.47;;;0.97;80.10
79028;BME280;68427;48.476;19.102;2023-03-14T03:16:25;96418.66;;;0.96;79.64
79028;BME280;68427;48.476;19.102;2023-03-14T03:18:52;96427.34;;;0.95;79.75
79028;BME280;68427;48.476;19.102;2023-03-14T03:21:17;96422.81;;;0.97;78.51
79028;BME280;68427;48.476;19.102;2023-03-14T03:23:44;96417.66;;;0.97;79.20
79028;BME280;68427;48.476;19.102;2023-03-14T03:26:10;96416.03;;;0.88;77.62
79028;BME280;68427;48.476;19.102;2023-03-14T03:28:36;96416.84;;;0.80;78.31
79028;BME280;68427;48.476;19.102;2023-03-14T03:31:07;96393.84;;;0.78;78.21
79028;BME280;68427;48.476;19.102;2023-03-14T03:33:33;96397.69;;;0.74;78.34
79028;BME280;68427;48.476;19.102;2023-03-14T03:36:00;96405.75;;;0.63;79.00
79028;BME280;68427;48.476;19.102;2023-03-14T03:38:26;96404.28;;;0.60;79.50
79028;BME280;68427;48.476;19.102;2023-03-14T03:40:51;96393.00;;;0.61;78.78
79028;BME280;68427;48.476;19.102;2023-03-14T03:43:17;96393.00;;;0.61;78.87
79028;BME280;68427;48.476;19.102;2023-03-14T03:45:43;96394.28;;;0.57;79.84
79028;BME280;68427;48.476;19.102;2023-03-14T03:48:10;96373.53;;;0.51;79.61
79028;BME280;68427;48.476;19.102;2023-03-14T03:50:35;96388.34;;;0.49;78.90
79028;BME280;68427;48.476;19.102;2023-03-14T03:53:03;96372.56;;;0.60;79.09
79028;BME280;68427;48.476;19.102;2023-03-14T03:55:28;96368.69;;;0.64;78.96
79028;BME280;68427;48.476;19.102;2023-03-14T03:57:54;96369.03;;;0.61;78.36
79028;BME280;68427;48.476;19.102;2023-03-14T04:00:20;96374.00;;;0.54;78.77
79028;BME280;68427;48.476;19.102;2023-03-14T04:02:46;96380.75;;;0.47;78.87
79028;BME280;68427;48.476;19.102;2023-03-14T04:05:11;96390.72;;;0.42;78.86
79028;BME280;68427;48.476;19.102;2023-03-14T04:07:37;96381.88;;;0.45;78.13
79028;BME280;68427;48.476;19.102;2023-03-14T04:10:05;96371.44;;;0.46;78.66
79028;BME280;68427;48.476;19.102;2023-03-14T04:12:31;96358.06;;;0.51;77.39
79028;BME280;68427;48.476;19.102;2023-03-14T04:14:56;96365.28;;;0.47;78.93
79028;BME280;68427;48.476;19.102;2023-03-14T04:17:22;96382.06;;;0.43;78.92
79028;BME280;68427;48.476;19.102;2023-03-14T04:19:48;96382.34;;;0.40;78.47
79028;BME280;68427;48.476;19.102;2023-03-14T04:22:16;96374.63;;;0.40;78.44
79028;BME280;68427;48.476;19.102;2023-03-14T04:24:42;96372.69;;;0.42;78.27
79028;BME280;68427;48.476;19.102;2023-03-14T04:27:09;96359.16;;;0.40;78.37
79028;BME280;68427;48.476;19.102;2023-03-14T04:29:35;96361.91;;;0.30;79.12
79028;BME280;68427;48.476;19.102;2023-03-14T04:32:00;96364.31;;;0.24;79.51
79028;BME280;68427;48.476;19.102;2023-03-14T04:34:26;96350.63;;;0.23;79.90
79028;BME280;68427;48.476;19.102;2023-03-14T04:36:52;96346.94;;;0.26;79.45
79028;BME280;68427;48.476;19.102;2023-03-14T04:39:24;96341.59;;;0.27;79.06
79028;BME280;68427;48.476;19.102;2023-03-14T04:41:50;96328.91;;;0.26;79.66
79028;BME280;68427;48.476;19.102;2023-03-14T04:44:17;96314.25;;;0.26;79.96
79028;BME280;68427;48.476;19.102;2023-03-14T04:46:43;96310.56;;;0.29;80.02
79028;BME280;68427;48.476;19.102;2023-03-14T04:49:08;96306.72;;;0.33;79.24
79028;BME280;68427;48.476;19.102;2023-03-14T04:51:34;96312.47;;;0.35;79.65
79028;BME280;68427;48.476;19.102;2023-03-14T04:54:00;96314.25;;;0.34;79.07
79028;BME280;68427;48.476;19.102;2023-03-14T04:56:25;96313.13;;;0.37;79.18
79028;BME280;68427;48.476;19.102;2023-03-14T04:58:51;96296.41;;;0.33;79.74
79028;BME280;68427;48.476;19.102;2023-03-14T05:01:18;96310.22;;;0.40;79.75
79028;BME280;68427;48.476;19.102;2023-03-14T05:03:44;96314.25;;;0.42;79.54
79028;BME280;68427;48.476;19.102;2023-03-14T05:06:10;96317.66;;;0.43;79.10
79028;BME280;68427;48.476;19.102;2023-03-14T05:08:35;96319.72;;;0.48;79.48
79028;BME280;68427;48.476;19.102;2023-03-14T05:11:01;96322.34;;;0.56;80.27
79028;BME280;68427;48.476;19.102;2023-03-14T05:13:28;96313.94;;;0.62;80.09
79028;BME280;68427;48.476;19.102;2023-03-14T05:16:01;96299.13;;;0.72;81.00
79028;BME280;68427;48.476;19.102;2023-03-14T05:18:29;96298.63;;;0.77;80.03
79028;BME280;68427;48.476;19.102;2023-03-14T05:20:55;96299.41;;;0.94;80.33
79028;BME280;68427;48.476;19.102;2023-03-14T05:23:21;96297.63;;;1.02;79.76
79028;BME280;68427;48.476;19.102;2023-03-14T05:25:46;96289.41;;;1.07;79.63
79028;BME280;68427;48.476;19.102;2023-03-14T05:28:12;96284.69;;;1.19;78.94
79028;BME280;68427;48.476;19.102;2023-03-14T05:30:38;96295.78;;;1.27;79.40
79028;BME280;68427;48.476;19.102;2023-03-14T05:33:03;96279.47;;;1.35;79.35
79028;BME280;68427;48.476;19.102;2023-03-14T05:35:30;96280.25;;;1.44;78.29
79028;BME280;68427;48.476;19.102;2023-03-14T05:37:56;96278.13;;;1.47;77.57
79028;BME280;68427;48.476;19.102;2023-03-14T05:40:22;96283.28;;;1.56;77.81
79028;BME280;68427;48.476;19.102;2023-03-14T05:42:48;96285.97;;;1.62;77.86
79028;BME280;68427;48.476;19.102;2023-03-14T05:45:14;96291.22;;;1.77;78.03
79028;BME280;68427;48.476;19.102;2023-03-14T05:47:39;96301.03;;;1.82;78.12
79028;BME280;68427;48.476;19.102;2023-03-14T05:50:05;96284.06;;;1.87;78.11
79028;BME280;68427;48.476;19.102;2023-03-14T05:52:33;96284.84;;;1.96;78.54
79028;BME280;68427;48.476;19.102;2023-03-14T05:54:58;96280.34;;;2.13;78.93
79028;BME280;68427;48.476;19.102;2023-03-14T05:57:24;96274.00;;;2.24;78.10
79028;BME280;68427;48.476;19.102;2023-03-14T05:59:50;96264.41;;;2.70;77.99
79028;BME280;68427;48.476;19.102;2023-03-14T06:02:15;96261.22;;;3.28;72.87
79028;BME280;68427;48.476;19.102;2023-03-14T06:04:41;96264.81;;;3.78;72.38
79028;BME280;68427;48.476;19.102;2023-03-14T06:07:07;96281.81;;;4.02;70.07
79028;BME280;68427;48.476;19.102;2023-03-14T06:09:34;96288.56;;;4.39;66.37
79028;BME280;68427;48.476;19.102;2023-03-14T06:12:00;96275.34;;;4.55;66.23
79028;BME280;68427;48.476;19.102;2023-03-14T06:14:25;96278.84;;;4.69;67.37
79028;BME280;68427;48.476;19.102;2023-03-14T06:16:51;96271.56;;;4.86;65.58
79028;BME280;68427;48.476;19.102;2023-03-14T06:19:18;96264.84;;;4.92;65.27
79028;BME280;68427;48.476;19.102;2023-03-14T06:21:43;96260.34;;;5.07;64.26
79028;BME280;68427;48.476;19.102;2023-03-14T06:24:09;96260.63;;;5.26;64.14
79028;BME280;68427;48.476;19.102;2023-03-14T06:26:37;96248.72;;;5.38;62.57
79028;BME280;68427;48.476;19.102;2023-03-14T06:29:02;96256.56;;;5.51;61.10
79028;BME280;68427;48.476;19.102;2023-03-14T06:31:29;96263.78;;;5.56;62.69
79028;BME280;68427;48.476;19.102;2023-03-14T06:33:55;96255.44;;;5.67;61.33
79028;BME280;68427;48.476;19.102;2023-03-14T06:36:20;96263.88;;;5.89;60.48
79028;BME280;68427;48.476;19.102;2023-03-14T06:38:46;96260.34;;;5.97;61.00
79028;BME280;68427;48.476;19.102;2023-03-14T06:41:12;96263.78;;;6.11;59.33
79028;BME280;68427;48.476;19.102;2023-03-14T06:43:39;96282.59;;;6.19;59.46
79028;BME280;68427;48.476;19.102;2023-03-14T06:46:05;96266.59;;;6.16;59.40
79028;BME280;68427;48.476;19.102;2023-03-14T06:48:31;96271.81;;;6.29;59.07
79028;BME280;68427;48.476;19.102;2023-03-14T06:50:56;96272.22;;;6.33;58.94
79028;BME280;68427;48.476;19.102;2023-03-14T06:53:22;96271.03;;;6.42;58.14
79028;BME280;68427;48.476;19.102;2023-03-14T06:55:48;96290.03;;;6.49;58.20
79028;BME280;68427;48.476;19.102;2023-03-14T06:58:13;96287.28;;;6.57;57.28
79028;BME280;68427;48.476;19.102;2023-03-14T07:00:41;96277.44;;;6.66;56.82
79028;BME280;68427;48.476;19.102;2023-03-14T07:03:06;96280.84;;;6.73;57.14
79028;BME280;68427;48.476;19.102;2023-03-14T07:05:32;96272.03;;;6.81;56.18
79028;BME280;68427;48.476;19.102;2023-03-14T07:07:58;96277.44;;;6.86;56.52
79028;BME280;68427;48.476;19.102;2023-03-14T07:10:24;96270.63;;;6.91;56.14
79028;BME280;68427;48.476;19.102;2023-03-14T07:12:50;96281.03;;;6.98;56.70
79028;BME280;68427;48.476;19.102;2023-03-14T07:15:16;96278.03;;;7.08;56.87
79028;BME280;68427;48.476;19.102;2023-03-14T07:17:43;96272.19;;;7.19;56.41
79028;BME280;68427;48.476;19.102;2023-03-14T07:20:10;96276.00;;;7.23;56.11
79028;BME280;68427;48.476;19.102;2023-03-14T07:22:35;96282.41;;;7.27;56.02
79028;BME280;68427;48.476;19.102;2023-03-14T07:25:01;96288.59;;;7.33;55.60
79028;BME280;68427;48.476;19.102;2023-03-14T07:27:27;96278.78;;;7.35;57.13
79028;BME280;68427;48.476;19.102;2023-03-14T07:29:52;96284.38;;;7.39;56.16
79028;BME280;68427;48.476;19.102;2023-03-14T07:32:18;96289.56;;;7.45;56.77
79028;BME280;68427;48.476;19.102;2023-03-14T07:34:45;96278.75;;;7.48;54.95
79028;BME280;68427;48.476;19.102;2023-03-14T07:37:11;96286.72;;;7.60;55.74
79028;BME280;68427;48.476;19.102;2023-03-14T07:39:37;96286.31;;;7.63;54.84
79028;BME280;68427;48.476;19.102;2023-03-14T07:42:02;96283.88;;;7.68;54.63
79028;BME280;68427;48.476;19.102;2023-03-14T07:44:28;96276.84;;;7.75;54.88
79028;BME280;68427;48.476;19.102;2023-03-14T07:46:54;96270.59;;;7.83;55.76
79028;BME280;68427;48.476;19.102;2023-03-14T07:49:20;96280.59;;;7.93;55.87
79028;BME280;68427;48.476;19.102;2023-03-14T07:51:48;96295.97;;;8.01;55.01
79028;BME280;68427;48.476;19.102;2023-03-14T07:54:14;96283.72;;;8.08;55.28
79028;BME280;68427;48.476;19.102;2023-03-14T07:56:40;96288.88;;;8.15;54.41
79028;BME280;68427;48.476;19.102;2023-03-14T07:59:06;96282.56;;;8.29;55.00
79028;BME280;68427;48.476;19.102;2023-03-14T08:01:32;96277.69;;;8.46;53.55
79028;BME280;68427;48.476;19.102;2023-03-14T08:03:58;96268.22;;;8.77;53.66
79028;BME280;68427;48.476;19.102;2023-03-14T08:06:24;96268.06;;;9.15;52.00
79028;BME280;68427;48.476;19.102;2023-03-14T08:08:51;96271.13;;;9.67;51.86
79028;BME280;68427;48.476;19.102;2023-03-14T08:11:17;96266.25;;;10.20;49.92
79028;BME280;68427;48.476;19.102;2023-03-14T08:13:43;96270.78;;;10.43;49.78
79028;BME280;68427;48.476;19.102;2023-03-14T08:16:15;96272.88;;;10.52;47.43
79028;BME280;68427;48.476;19.102;2023-03-14T08:18:40;96266.78;;;10.28;48.83
79028;BME280;68427;48.476;19.102;2023-03-14T08:21:06;96261.69;;;10.33;48.90
79028;BME280;68427;48.476;19.102;2023-03-14T08:23:32;96264.88;;;10.17;50.86
79028;BME280;68427;48.476;19.102;2023-03-14T08:26:06;96257.53;;;10.26;48.23
79028;BME280;68427;48.476;19.102;2023-03-14T08:28:31;96255.88;;;10.13;49.40
79028;BME280;68427;48.476;19.102;2023-03-14T08:30:59;96252.53;;;10.66;47.60
79028;BME280;68427;48.476;19.102;2023-03-14T08:33:25;96247.38;;;11.18;48.32
79028;BME280;68427;48.476;19.102;2023-03-14T08:35:51;96249.09;;;11.36;47.07
79028;BME280;68427;48.476;19.102;2023-03-14T08:38:17;96254.56;;;11.46;46.41
79028;BME280;68427;48.476;19.102;2023-03-14T08:40:43;96250.47;;;11.27;47.15
79028;BME280;68427;48.476;19.102;2023-03-14T08:43:10;96238.63;;;11.13;47.66
79028;BME280;68427;48.476;19.102;2023-03-14T08:45:36;96246.94;;;11.10;46.56
79028;BME280;68427;48.476;19.102;2023-03-14T08:48:02;96230.53;;;11.26;47.90
79028;BME280;68427;48.476;19.102;2023-03-14T08:50:28;96232.31;;;11.49;47.15
79028;BME280;68427;48.476;19.102;2023-03-14T08:52:54;96232.81;;;11.86;45.85
79028;BME280;68427;48.476;19.102;2023-03-14T08:55:20;96236.91;;;12.11;45.08
79028;BME280;68427;48.476;19.102;2023-03-14T08:57:46;96227.34;;;12.67;43.31
79028;BME280;68427;48.476;19.102;2023-03-14T09:00:14;96216.94;;;13.28;42.04
79028;BME280;68427;48.476;19.102;2023-03-14T09:02:40;96220.19;;;13.35;40.97
79028;BME280;68427;48.476;19.102;2023-03-14T09:05:07;96228.31;;;13.34;42.49
79028;BME280;68427;48.476;19.102;2023-03-14T09:07:33;96227.16;;;13.47;41.96
79028;BME280;68427;48.476;19.102;2023-03-14T09:09:59;96214.34;;;13.72;41.24
79028;BME280;68427;48.476;19.102;2023-03-14T09:12:25;96215.28;;;13.22;43.03
79028;BME280;68427;48.476;19.102;2023-03-14T09:14:50;96208.34;;;12.77;43.49
79028;BME280;68427;48.476;19.102;2023-03-14T09:17:17;96203.22;;;12.87;43.38
79028;BME280;68427;48.476;19.102;2023-03-14T09:19:43;96205.00;;;12.65;44.47
79028;BME280;68427;48.476;19.102;2023-03-14T09:22:09;96203.31;;;11.96;44.61
79028;BME280;68427;48.476;19.102;2023-03-14T09:24:35;96190.97;;;11.68;44.98
79028;BME280;68427;48.476;19.102;2023-03-14T09:27:00;96181.75;;;11.65;46.27
79028;BME280;68427;48.476;19.102;2023-03-14T09:29:26;96182.00;;;11.64;46.69
79028;BME280;68427;48.476;19.102;2023-03-14T09:31:52;96182.09;;;11.69;47.20
79028;BME280;68427;48.476;19.102;2023-03-14T09:34:19;96181.75;;;11.65;47.86
79028;BME280;68427;48.476;19.102;2023-03-14T09:36:45;96174.25;;;11.57;46.97
79028;BME280;68427;48.476;19.102;2023-03-14T09:39:11;96174.34;;;11.62;47.94
79028;BME280;68427;48.476;19.102;2023-03-14T09:41:38;96174.56;;;11.61;49.11
79028;BME280;68427;48.476;19.102;2023-03-14T09:44:09;96175.59;;;11.31;47.75
79028;BME280;68427;48.476;19.102;2023-03-14T09:46:38;96176.03;;;11.28;48.94
79028;BME280;68427;48.476;19.102;2023-03-14T09:49:10;96181.53;;;11.27;49.16
79028;BME280;68427;48.476;19.102;2023-03-14T09:51:38;96188.59;;;11.26;48.94
79028;BME280;68427;48.476;19.102;2023-03-14T09:54:05;96188.13;;;11.29;48.68
79028;BME280;68427;48.476;19.102;2023-03-14T09:56:32;96184.63;;;11.23;49.32
79028;BME280;68427;48.476;19.102;2023-03-14T09:59:00;96187.66;;;11.32;49.84
79028;BME280;68427;48.476;19.102;2023-03-14T10:01:27;96189.41;;;11.27;49.83
79028;BME280;68427;48.476;19.102;2023-03-14T10:03:56;96178.31;;;11.36;50.61
79028;BME280;68427;48.476;19.102;2023-03-14T10:06:24;96176.59;;;11.42;51.45
79028;BME280;68427;48.476;19.102;2023-03-14T10:08:54;96177.16;;;11.44;50.37
79028;BME280;68427;48.476;19.102;2023-03-14T10:11:20;96174.28;;;11.45;49.26
79028;BME280;68427;48.476;19.102;2023-03-14T10:13:49;96166.22;;;11.35;49.60
79028;BME280;68427;48.476;19.102;2023-03-14T10:16:15;96173.63;;;11.38;50.83
79028;BME280;68427;48.476;19.102;2023-03-14T10:18:44;96176.63;;;11.18;51.36
79028;BME280;68427;48.476;19.102;2023-03-14T10:21:21;96177.56;;;11.12;51.64
79028;BME280;68427;48.476;19.102;2023-03-14T10:23:47;96171.75;;;11.10;50.63
79028;BME280;68427;48.476;19.102;2023-03-14T10:26:15;96168.50;;;10.91;51.35
79028;BME280;68427;48.476;19.102;2023-03-14T10:28:44;96163.78;;;10.93;51.01
79028;BME280;68427;48.476;19.102;2023-03-14T10:31:10;96159.59;;;10.92;52.05
79028;BME280;68427;48.476;19.102;2023-03-14T10:33:37;96153.97;;;11.12;51.05
79028;BME280;68427;48.476;19.102;2023-03-14T10:36:06;96157.16;;;11.26;50.06
79028;BME280;68427;48.476;19.102;2023-03-14T10:38:40;96156.19;;;11.44;49.78
79028;BME280;68427;48.476;19.102;2023-03-14T10:41:17;96151.13;;;11.54;49.21
79028;BME280;68427;48.476;19.102;2023-03-14T10:43:43;96149.31;;;11.55;49.78
79028;BME280;68427;48.476;19.102;2023-03-14T10:46:12;96145.53;;;11.51;49.55
79028;BME280;68427;48.476;19.102;2023-03-14T10:48:39;96142.00;;;11.57;50.08
79028;BME280;68427;48.476;19.102;2023-03-14T10:51:10;96142.41;;;11.65;49.64
79028;BME280;68427;48.476;19.102;2023-03-14T10:53:41;96132.47;;;11.67;49.86
79028;BME280;68427;48.476;19.102;2023-03-14T10:56:12;96124.53;;;11.62;47.30
79028;BME280;68427;48.476;19.102;2023-03-14T10:58:42;96127.16;;;11.62;47.40
79028;BME280;68427;48.476;19.102;2023-03-14T11:01:25;96120.16;;;11.68;48.07
79028;BME280;68427;48.476;19.102;2023-03-14T11:03:56;96107.94;;;11.74;48.73
79028;BME280;68427;48.476;19.102;2023-03-14T11:06:28;96108.31;;;11.65;48.56
79028;BME280;68427;48.476;19.102;2023-03-14T11:09:02;96102.81;;;11.50;47.77
79028;BME280;68427;48.476;19.102;2023-03-14T11:11:31;96110.56;;;11.45;50.69
79028;BME280;68427;48.476;19.102;2023-03-14T11:14:13;96114.34;;;11.49;47.64
79028;BME280;68427;48.476;19.102;2023-03-14T11:16:50;96109.31;;;11.48;48.39
79028;BME280;68427;48.476;19.102;2023-03-14T11:19:34;96098.13;;;11.52;48.61
79028;BME280;68427;48.476;19.102;2023-03-14T11:22:03;96091.94;;;11.58;48.30
79028;BME280;68427;48.476;19.102;2023-03-14T11:24:48;96090.91;;;11.59;48.50
79028;BME280;68427;48.476;19.102;2023-03-14T11:27:20;96090.75;;;11.66;49.03
79028;BME280;68427;48.476;19.102;2023-03-14T11:29:54;96097.25;;;11.63;49.04
79028;BME280;68427;48.476;19.102;2023-03-14T11:32:29;96085.00;;;11.52;48.94
79028;BME280;68427;48.476;19.102;2023-03-14T11:35:03;96084.34;;;11.45;49.12
79028;BME280;68427;48.476;19.102;2023-03-14T11:37:33;96077.16;;;11.52;50.63
79028;BME280;68427;48.476;19.102;2023-03-14T11:40:04;96067.53;;;11.58;50.09
79028;BME280;68427;48.476;19.102;2023-03-14T11:42:32;96048.00;;;11.65;49.00
79028;BME280;68427;48.476;19.102;2023-03-14T11:45:00;96051.41;;;11.83;48.73
79028;BME280;68427;48.476;19.102;2023-03-14T11:47:30;96063.47;;;11.96;49.05
79028;BME280;68427;48.476;19.102;2023-03-14T11:50:02;96050.66;;;11.99;48.74
79028;BME280;68427;48.476;19.102;2023-03-14T11:52:32;96055.75;;;12.06;48.52
79028;BME280;68427;48.476;19.102;2023-03-14T11:55:00;96050.50;;;12.06;48.88
79028;BME280;68427;48.476;19.102;2023-03-14T11:57:28;96048.75;;;11.95;49.30
79028;BME280;68427;48.476;19.102;2023-03-14T12:00:00;96048.50;;;11.79;49.59
79028;BME280;68427;48.476;19.102;2023-03-14T12:02:34;96055.09;;;11.82;49.55
79028;BME280;68427;48.476;19.102;2023-03-14T12:05:25;96049.13;;;11.70;51.97
79028;BME280;68427;48.476;19.102;2023-03-14T12:10:55;96035.91;;;11.64;52.46
79028;BME280;68427;48.476;19.102;2023-03-14T12:13:28;96030.81;;;11.58;52.13
79028;BME280;68427;48.476;19.102;2023-03-14T12:15:58;96026.63;;;11.57;52.46
79028;BME280;68427;48.476;19.102;2023-03-14T12:18:28;96010.81;;;11.52;52.11
79028;BME280;68427;48.476;19.102;2023-03-14T12:20:57;96002.59;;;11.31;52.31
79028;BME280;68427;48.476;19.102;2023-03-14T12:23:24;96000.19;;;11.30;52.61
79028;BME280;68427;48.476;19.102;2023-03-14T12:26:05;95989.94;;;11.28;52.59
79028;BME280;68427;48.476;19.102;2023-03-14T12:28:32;95985.44;;;11.23;52.84
79028;BME280;68427;48.476;19.102;2023-03-14T12:31:38;95979.38;;;11.23;52.85
79028;BME280;68427;48.476;19.102;2023-03-14T12:37:13;95978.28;;;11.19;52.29
79028;BME280;68427;48.476;19.102;2023-03-14T12:39:47;95980.19;;;11.23;51.71
79028;BME280;68427;48.476;19.102;2023-03-14T12:42:21;95986.66;;;11.21;52.42
79028;BME280;68427;48.476;19.102;2023-03-14T12:45:15;95976.03;;;11.11;51.55
79028;BME280;68427;48.476;19.102;2023-03-14T12:47:53;95979.03;;;11.02;52.09
79028;BME280;68427;48.476;19.102;2023-03-14T12:50:25;95973.47;;;10.99;53.10
79028;BME280;68427;48.476;19.102;2023-03-14T12:55:47;95965.34;;;10.84;53.37
79028;BME280;68427;48.476;19.102;2023-03-14T12:58:17;95965.56;;;10.82;53.18
79028;BME280;68427;48.476;19.102;2023-03-14T13:00:54;95957.53;;;10.72;53.20
79028;BME280;68427;48.476;19.102;2023-03-14T13:03:25;95950.69;;;10.71;53.16
79028;BME280;68427;48.476;19.102;2023-03-14T13:05:54;95948.03;;;10.82;52.21
79028;BME280;68427;48.476;19.102;2023-03-14T13:08:36;95951.44;;;10.83;52.77
79028;BME280;68427;48.476;19.102;2023-03-14T13:11:05;95953.34;;;10.88;53.63
79028;BME280;68427;48.476;19.102;2023-03-14T13:13:34;95951.59;;;10.93;53.81